Terminal Aerodrome Forecast
Issued by NWS New Orleans/Baton Rouge, LA

Home | Current Version | Previous Version | Text Only | Print | Product List | Glossary On
Versions: 1 2 3 4 5 6 7 8 9 10 11 12 13 14 15
000
FTUS44 KLIX 210520
TAFBTR
TAF
KBTR 210520Z 2106/2206 00000KT P6SM FEW130 BKN250
     FM211700 13005KT P6SM BKN035 BKN090=

USA.gov is the U.S. government's official web portal to all federal, state and local government web resources and services.